sensor_id;sensor_type;location;lat;lon;timestamp;P1;durP1;ratioP1;P2;durP2;ratioP2
18772;SDS011;9515;50.810;4.418;2022-07-21T00:01:16;19.83;;;17.80;;
18772;SDS011;9515;50.810;4.418;2022-07-21T00:03:42;21.00;;;17.58;;
18772;SDS011;9515;50.810;4.418;2022-07-21T00:06:08;20.67;;;18.45;;
18772;SDS011;9515;50.810;4.418;2022-07-21T00:08:33;20.70;;;17.92;;
18772;SDS011;9515;50.810;4.418;2022-07-21T00:10:59;21.80;;;18.75;;
18772;SDS011;9515;50.810;4.418;2022-07-21T00:13:25;20.55;;;18.02;;
18772;SDS011;9515;50.810;4.418;2022-07-21T00:15:51;20.85;;;18.65;;
18772;SDS011;9515;50.810;4.418;2022-07-21T00:18:17;21.67;;;19.50;;
18772;SDS011;9515;50.810;4.418;2022-07-21T00:20:43;20.60;;;18.60;;
18772;SDS011;9515;50.810;4.418;2022-07-21T00:23:09;24.15;;;18.45;;
18772;SDS011;9515;50.810;4.418;2022-07-21T00:25:35;20.00;;;18.02;;
18772;SDS011;9515;50.810;4.418;2022-07-21T00:28:01;20.70;;;18.63;;
18772;SDS011;9515;50.810;4.418;2022-07-21T00:30:28;21.85;;;17.85;;
18772;SDS011;9515;50.810;4.418;2022-07-21T00:32:53;22.92;;;19.13;;
18772;SDS011;9515;50.810;4.418;2022-07-21T00:35:19;21.30;;;18.77;;
18772;SDS011;9515;50.810;4.418;2022-07-21T00:37:45;23.73;;;18.42;;
18772;SDS011;9515;50.810;4.418;2022-07-21T00:40:11;21.02;;;18.90;;
18772;SDS011;9515;50.810;4.418;2022-07-21T00:42:38;21.52;;;18.75;;
18772;SDS011;9515;50.810;4.418;2022-07-21T00:45:05;26.52;;;19.35;;
18772;SDS011;9515;50.810;4.418;2022-07-21T00:47:32;20.67;;;18.58;;
18772;SDS011;9515;50.810;4.418;2022-07-21T00:49:59;21.73;;;19.40;;
18772;SDS011;9515;50.810;4.418;2022-07-21T00:52:26;21.17;;;18.98;;
18772;SDS011;9515;50.810;4.418;2022-07-21T00:54:52;21.60;;;19.40;;
18772;SDS011;9515;50.810;4.418;2022-07-21T00:57:18;22.63;;;20.38;;
18772;SDS011;9515;50.810;4.418;2022-07-21T00:59:44;21.70;;;19.33;;
18772;SDS011;9515;50.810;4.418;2022-07-21T01:02:10;21.05;;;18.88;;
18772;SDS011;9515;50.810;4.418;2022-07-21T01:04:37;22.88;;;18.58;;
18772;SDS011;9515;50.810;4.418;2022-07-21T01:07:03;22.65;;;19.40;;
18772;SDS011;9515;50.810;4.418;2022-07-21T01:09:30;22.27;;;19.83;;
18772;SDS011;9515;50.810;4.418;2022-07-21T01:11:57;23.20;;;19.33;;
18772;SDS011;9515;50.810;4.418;2022-07-21T01:14:24;22.42;;;17.90;;
18772;SDS011;9515;50.810;4.418;2022-07-21T01:16:50;20.83;;;17.35;;
18772;SDS011;9515;50.810;4.418;2022-07-21T01:19:16;19.95;;;17.88;;
18772;SDS011;9515;50.810;4.418;2022-07-21T01:21:44;22.50;;;18.23;;
18772;SDS011;9515;50.810;4.418;2022-07-21T01:24:11;20.05;;;18.08;;
18772;SDS011;9515;50.810;4.418;2022-07-21T01:26:41;19.02;;;17.02;;
18772;SDS011;9515;50.810;4.418;2022-07-21T01:29:08;18.58;;;16.75;;
18772;SDS011;9515;50.810;4.418;2022-07-21T01:31:35;19.52;;;17.33;;
18772;SDS011;9515;50.810;4.418;2022-07-21T01:34:01;19.63;;;16.77;;
18772;SDS011;9515;50.810;4.418;2022-07-21T01:36:27;21.67;;;16.80;;
18772;SDS011;9515;50.810;4.418;2022-07-21T01:38:53;18.25;;;15.70;;
18772;SDS011;9515;50.810;4.418;2022-07-21T01:41:37;17.52;;;15.65;;
18772;SDS011;9515;50.810;4.418;2022-07-21T01:44:04;15.68;;;14.07;;
18772;SDS011;9515;50.810;4.418;2022-07-21T01:46:32;19.20;;;14.50;;
18772;SDS011;9515;50.810;4.418;2022-07-21T01:49:00;17.70;;;14.10;;
18772;SDS011;9515;50.810;4.418;2022-07-21T01:51:26;17.67;;;13.95;;
18772;SDS011;9515;50.810;4.418;2022-07-21T01:53:52;15.48;;;13.82;;
18772;SDS011;9515;50.810;4.418;2022-07-21T01:56:19;16.17;;;14.50;;
18772;SDS011;9515;50.810;4.418;2022-07-21T01:58:46;15.82;;;14.15;;
18772;SDS011;9515;50.810;4.418;2022-07-21T02:01:12;17.27;;;15.00;;
18772;SDS011;9515;50.810;4.418;2022-07-21T02:03:39;21.48;;;14.05;;
18772;SDS011;9515;50.810;4.418;2022-07-21T02:06:05;17.13;;;14.45;;
18772;SDS011;9515;50.810;4.418;2022-07-21T02:08:32;15.85;;;14.00;;
18772;SDS011;9515;50.810;4.418;2022-07-21T02:10:58;15.80;;;13.07;;
18772;SDS011;9515;50.810;4.418;2022-07-21T02:13:24;17.67;;;13.65;;
18772;SDS011;9515;50.810;4.418;2022-07-21T02:15:49;20.77;;;13.48;;
18772;SDS011;9515;50.810;4.418;2022-07-21T02:18:15;16.83;;;13.30;;
18772;SDS011;9515;50.810;4.418;2022-07-21T02:20:40;21.17;;;13.57;;
18772;SDS011;9515;50.810;4.418;2022-07-21T02:23:06;19.52;;;12.93;;
18772;SDS011;9515;50.810;4.418;2022-07-21T02:25:32;16.60;;;13.50;;
18772;SDS011;9515;50.810;4.418;2022-07-21T02:27:58;14.60;;;12.95;;
18772;SDS011;9515;50.810;4.418;2022-07-21T02:30:23;17.77;;;13.32;;
18772;SDS011;9515;50.810;4.418;2022-07-21T02:32:49;15.95;;;12.88;;
18772;SDS011;9515;50.810;4.418;2022-07-21T02:35:15;19.45;;;12.38;;
18772;SDS011;9515;50.810;4.418;2022-07-21T02:37:40;22.67;;;12.95;;
18772;SDS011;9515;50.810;4.418;2022-07-21T02:40:06;18.90;;;13.32;;
18772;SDS011;9515;50.810;4.418;2022-07-21T02:42:32;16.52;;;12.52;;
18772;SDS011;9515;50.810;4.418;2022-07-21T02:44:58;15.15;;;12.73;;
18772;SDS011;9515;50.810;4.418;2022-07-21T02:47:24;14.38;;;12.18;;
18772;SDS011;9515;50.810;4.418;2022-07-21T02:49:49;17.17;;;11.93;;
18772;SDS011;9515;50.810;4.418;2022-07-21T02:52:15;14.30;;;12.35;;
18772;SDS011;9515;50.810;4.418;2022-07-21T02:54:40;15.57;;;12.18;;
18772;SDS011;9515;50.810;4.418;2022-07-21T02:57:06;19.42;;;11.60;;
18772;SDS011;9515;50.810;4.418;2022-07-21T02:59:32;13.10;;;11.50;;
18772;SDS011;9515;50.810;4.418;2022-07-21T03:01:57;15.50;;;11.30;;
18772;SDS011;9515;50.810;4.418;2022-07-21T03:04:23;15.13;;;11.55;;
18772;SDS011;9515;50.810;4.418;2022-07-21T03:06:49;14.55;;;11.00;;
18772;SDS011;9515;50.810;4.418;2022-07-21T03:09:14;19.25;;;11.30;;
18772;SDS011;9515;50.810;4.418;2022-07-21T03:11:40;13.13;;;11.10;;
18772;SDS011;9515;50.810;4.418;2022-07-21T03:14:06;16.40;;;11.30;;
18772;SDS011;9515;50.810;4.418;2022-07-21T03:16:31;16.38;;;11.02;;
18772;SDS011;9515;50.810;4.418;2022-07-21T03:18:57;14.43;;;10.82;;
18772;SDS011;9515;50.810;4.418;2022-07-21T03:21:23;12.43;;;10.70;;
18772;SDS011;9515;50.810;4.418;2022-07-21T03:23:48;13.65;;;10.45;;
18772;SDS011;9515;50.810;4.418;2022-07-21T03:26:14;18.40;;;10.90;;
18772;SDS011;9515;50.810;4.418;2022-07-21T03:28:41;17.63;;;11.00;;
18772;SDS011;9515;50.810;4.418;2022-07-21T03:31:08;15.68;;;10.68;;
18772;SDS011;9515;50.810;4.418;2022-07-21T03:33:33;14.60;;;9.98;;
18772;SDS011;9515;50.810;4.418;2022-07-21T03:35:59;16.85;;;10.52;;
18772;SDS011;9515;50.810;4.418;2022-07-21T03:38:25;14.65;;;9.45;;
18772;SDS011;9515;50.810;4.418;2022-07-21T03:40:51;11.00;;;9.35;;
18772;SDS011;9515;50.810;4.418;2022-07-21T03:43:17;11.45;;;9.50;;
18772;SDS011;9515;50.810;4.418;2022-07-21T03:45:43;18.77;;;10.65;;
18772;SDS011;9515;50.810;4.418;2022-07-21T03:48:09;18.05;;;10.07;;
18772;SDS011;9515;50.810;4.418;2022-07-21T03:50:36;15.43;;;10.20;;
18772;SDS011;9515;50.810;4.418;2022-07-21T03:53:03;15.68;;;10.30;;
18772;SDS011;9515;50.810;4.418;2022-07-21T03:55:29;13.65;;;10.48;;
18772;SDS011;9515;50.810;4.418;2022-07-21T03:57:56;16.52;;;11.13;;
18772;SDS011;9515;50.810;4.418;2022-07-21T04:00:30;17.52;;;11.50;;
18772;SDS011;9515;50.810;4.418;2022-07-21T04:02:59;15.40;;;11.20;;
18772;SDS011;9515;50.810;4.418;2022-07-21T04:05:26;12.07;;;10.60;;
18772;SDS011;9515;50.810;4.418;2022-07-21T04:07:52;17.08;;;11.13;;
18772;SDS011;9515;50.810;4.418;2022-07-21T04:10:19;17.45;;;11.98;;
18772;SDS011;9515;50.810;4.418;2022-07-21T04:12:47;14.77;;;11.32;;
18772;SDS011;9515;50.810;4.418;2022-07-21T04:15:13;15.75;;;11.35;;
18772;SDS011;9515;50.810;4.418;2022-07-21T04:17:40;18.00;;;11.88;;
18772;SDS011;9515;50.810;4.418;2022-07-21T04:20:06;19.98;;;12.60;;
18772;SDS011;9515;50.810;4.418;2022-07-21T04:22:33;19.15;;;12.85;;
18772;SDS011;9515;50.810;4.418;2022-07-21T04:24:58;16.30;;;12.18;;
18772;SDS011;9515;50.810;4.418;2022-07-21T04:27:25;18.90;;;13.07;;
18772;SDS011;9515;50.810;4.418;2022-07-21T04:29:51;17.38;;;12.88;;
18772;SDS011;9515;50.810;4.418;2022-07-21T04:32:17;21.05;;;14.35;;
18772;SDS011;9515;50.810;4.418;2022-07-21T04:34:42;22.05;;;13.30;;
18772;SDS011;9515;50.810;4.418;2022-07-21T04:37:08;23.88;;;13.93;;
18772;SDS011;9515;50.810;4.418;2022-07-21T04:39:34;21.92;;;14.27;;
18772;SDS011;9515;50.810;4.418;2022-07-21T04:41:59;17.27;;;14.13;;
18772;SDS011;9515;50.810;4.418;2022-07-21T04:44:25;25.10;;;14.95;;
18772;SDS011;9515;50.810;4.418;2022-07-21T04:46:51;21.63;;;14.02;;
18772;SDS011;9515;50.810;4.418;2022-07-21T04:49:16;22.08;;;15.07;;
18772;SDS011;9515;50.810;4.418;2022-07-21T04:51:42;22.75;;;14.70;;
18772;SDS011;9515;50.810;4.418;2022-07-21T04:54:08;22.02;;;13.82;;
18772;SDS011;9515;50.810;4.418;2022-07-21T04:56:38;20.75;;;14.52;;
18772;SDS011;9515;50.810;4.418;2022-07-21T04:59:07;26.10;;;14.82;;
18772;SDS011;9515;50.810;4.418;2022-07-21T05:01:33;19.90;;;14.77;;
18772;SDS011;9515;50.810;4.418;2022-07-21T05:04:00;27.58;;;15.43;;
18772;SDS011;9515;50.810;4.418;2022-07-21T05:06:25;23.50;;;15.05;;
18772;SDS011;9515;50.810;4.418;2022-07-21T05:08:51;20.80;;;14.75;;
18772;SDS011;9515;50.810;4.418;2022-07-21T05:11:17;21.55;;;15.65;;
18772;SDS011;9515;50.810;4.418;2022-07-21T05:13:42;21.98;;;15.00;;
18772;SDS011;9515;50.810;4.418;2022-07-21T05:16:08;21.33;;;15.00;;
18772;SDS011;9515;50.810;4.418;2022-07-21T05:18:34;26.92;;;16.95;;
18772;SDS011;9515;50.810;4.418;2022-07-21T05:20:59;22.35;;;17.17;;
18772;SDS011;9515;50.810;4.418;2022-07-21T05:23:25;23.55;;;16.88;;
18772;SDS011;9515;50.810;4.418;2022-07-21T05:25:51;30.15;;;18.80;;
18772;SDS011;9515;50.810;4.418;2022-07-21T05:28:16;25.05;;;18.27;;
18772;SDS011;9515;50.810;4.418;2022-07-21T05:30:42;27.27;;;17.88;;
18772;SDS011;9515;50.810;4.418;2022-07-21T05:33:08;27.15;;;19.65;;
18772;SDS011;9515;50.810;4.418;2022-07-21T05:35:33;31.80;;;20.55;;
18772;SDS011;9515;50.810;4.418;2022-07-21T05:37:59;30.73;;;20.77;;
18772;SDS011;9515;50.810;4.418;2022-07-21T05:40:25;36.70;;;21.40;;
18772;SDS011;9515;50.810;4.418;2022-07-21T05:42:51;27.98;;;21.25;;
18772;SDS011;9515;50.810;4.418;2022-07-21T05:45:16;28.50;;;21.70;;
18772;SDS011;9515;50.810;4.418;2022-07-21T05:47:43;32.28;;;21.50;;
18772;SDS011;9515;50.810;4.418;2022-07-21T05:50:09;36.50;;;22.98;;
18772;SDS011;9515;50.810;4.418;2022-07-21T05:52:36;32.97;;;22.75;;
18772;SDS011;9515;50.810;4.418;2022-07-21T05:55:02;29.05;;;21.33;;
18772;SDS011;9515;50.810;4.418;2022-07-21T05:57:28;35.65;;;23.42;;
18772;SDS011;9515;50.810;4.418;2022-07-21T05:59:53;33.63;;;21.38;;
18772;SDS011;9515;50.810;4.418;2022-07-21T06:02:19;39.22;;;22.83;;
18772;SDS011;9515;50.810;4.418;2022-07-21T06:04:45;33.90;;;22.17;;
18772;SDS011;9515;50.810;4.418;2022-07-21T06:07:10;33.58;;;22.27;;
18772;SDS011;9515;50.810;4.418;2022-07-21T06:09:36;33.10;;;22.23;;
18772;SDS011;9515;50.810;4.418;2022-07-21T06:12:01;29.23;;;21.48;;
18772;SDS011;9515;50.810;4.418;2022-07-21T06:14:27;35.10;;;22.35;;
18772;SDS011;9515;50.810;4.418;2022-07-21T06:16:54;30.30;;;22.33;;
18772;SDS011;9515;50.810;4.418;2022-07-21T06:19:19;32.55;;;23.05;;
18772;SDS011;9515;50.810;4.418;2022-07-21T06:21:45;30.17;;;23.52;;
18772;SDS011;9515;50.810;4.418;2022-07-21T06:24:11;31.17;;;23.77;;
18772;SDS011;9515;50.810;4.418;2022-07-21T06:26:37;35.50;;;23.48;;
18772;SDS011;9515;50.810;4.418;2022-07-21T06:29:04;34.80;;;24.13;;
18772;SDS011;9515;50.810;4.418;2022-07-21T06:31:31;32.65;;;24.00;;
18772;SDS011;9515;50.810;4.418;2022-07-21T06:33:57;32.95;;;24.15;;
18772;SDS011;9515;50.810;4.418;2022-07-21T06:36:22;33.17;;;23.17;;
18772;SDS011;9515;50.810;4.418;2022-07-21T06:38:48;29.95;;;23.88;;
18772;SDS011;9515;50.810;4.418;2022-07-21T06:41:13;33.15;;;24.48;;
18772;SDS011;9515;50.810;4.418;2022-07-21T06:43:39;33.42;;;24.70;;
18772;SDS011;9515;50.810;4.418;2022-07-21T06:46:05;37.05;;;24.48;;
18772;SDS011;9515;50.810;4.418;2022-07-21T06:48:30;35.45;;;25.92;;
18772;SDS011;9515;50.810;4.418;2022-07-21T06:50:56;38.28;;;26.40;;
18772;SDS011;9515;50.810;4.418;2022-07-21T06:53:22;37.97;;;26.05;;
18772;SDS011;9515;50.810;4.418;2022-07-21T06:55:49;41.28;;;28.52;;
18772;SDS011;9515;50.810;4.418;2022-07-21T06:58:20;49.92;;;29.55;;
18772;SDS011;9515;50.810;4.418;2022-07-21T07:00:48;44.58;;;30.55;;
18772;SDS011;9515;50.810;4.418;2022-07-21T07:03:14;53.15;;;32.15;;
18772;SDS011;9515;50.810;4.418;2022-07-21T07:05:41;57.22;;;33.65;;
18772;SDS011;9515;50.810;4.418;2022-07-21T07:08:07;55.67;;;34.40;;
18772;SDS011;9515;50.810;4.418;2022-07-21T07:10:33;64.47;;;35.80;;
18772;SDS011;9515;50.810;4.418;2022-07-21T07:12:59;65.70;;;35.90;;
18772;SDS011;9515;50.810;4.418;2022-07-21T07:15:25;60.03;;;35.92;;
18772;SDS011;9515;50.810;4.418;2022-07-21T07:17:51;66.85;;;38.72;;
18772;SDS011;9515;50.810;4.418;2022-07-21T07:20:17;63.63;;;37.58;;
18772;SDS011;9515;50.810;4.418;2022-07-21T07:22:43;74.90;;;39.72;;
18772;SDS011;9515;50.810;4.418;2022-07-21T07:25:09;66.22;;;38.13;;
18772;SDS011;9515;50.810;4.418;2022-07-21T07:27:41;70.00;;;38.50;;
18772;SDS011;9515;50.810;4.418;2022-07-21T07:30:27;68.43;;;38.17;;
18772;SDS011;9515;50.810;4.418;2022-07-21T07:32:53;71.40;;;40.05;;
18772;SDS011;9515;50.810;4.418;2022-07-21T07:35:18;69.55;;;39.97;;
18772;SDS011;9515;50.810;4.418;2022-07-21T07:37:45;74.97;;;41.17;;
18772;SDS011;9515;50.810;4.418;2022-07-21T07:40:16;71.20;;;40.65;;
18772;SDS011;9515;50.810;4.418;2022-07-21T07:42:44;71.28;;;40.65;;
18772;SDS011;9515;50.810;4.418;2022-07-21T07:45:11;62.97;;;39.75;;
18772;SDS011;9515;50.810;4.418;2022-07-21T07:47:37;70.75;;;39.25;;
18772;SDS011;9515;50.810;4.418;2022-07-21T07:50:04;69.90;;;40.33;;
18772;SDS011;9515;50.810;4.418;2022-07-21T07:52:33;68.05;;;40.53;;
18772;SDS011;9515;50.810;4.418;2022-07-21T07:54:59;66.35;;;38.72;;
18772;SDS011;9515;50.810;4.418;2022-07-21T07:57:28;76.95;;;41.08;;
18772;SDS011;9515;50.810;4.418;2022-07-21T07:59:54;71.47;;;41.22;;
18772;SDS011;9515;50.810;4.418;2022-07-21T08:02:20;67.50;;;41.72;;
18772;SDS011;9515;50.810;4.418;2022-07-21T08:04:45;71.53;;;42.42;;
18772;SDS011;9515;50.810;4.418;2022-07-21T08:07:11;72.50;;;43.38;;
18772;SDS011;9515;50.810;4.418;2022-07-21T08:09:36;76.47;;;42.88;;
18772;SDS011;9515;50.810;4.418;2022-07-21T08:12:04;66.28;;;41.55;;
18772;SDS011;9515;50.810;4.418;2022-07-21T08:14:30;60.20;;;40.85;;
18772;SDS011;9515;50.810;4.418;2022-07-21T08:16:56;64.32;;;41.10;;
18772;SDS011;9515;50.810;4.418;2022-07-21T08:19:23;60.40;;;39.78;;
18772;SDS011;9515;50.810;4.418;2022-07-21T08:21:49;62.25;;;40.20;;
18772;SDS011;9515;50.810;4.418;2022-07-21T08:24:16;66.47;;;39.92;;
18772;SDS011;9515;50.810;4.418;2022-07-21T08:26:42;64.70;;;40.92;;
18772;SDS011;9515;50.810;4.418;2022-07-21T08:29:09;59.80;;;38.78;;
18772;SDS011;9515;50.810;4.418;2022-07-21T08:31:35;56.88;;;39.03;;
18772;SDS011;9515;50.810;4.418;2022-07-21T08:34:01;54.05;;;37.08;;
18772;SDS011;9515;50.810;4.418;2022-07-21T08:36:26;57.00;;;37.80;;
18772;SDS011;9515;50.810;4.418;2022-07-21T08:38:52;54.03;;;37.28;;
18772;SDS011;9515;50.810;4.418;2022-07-21T08:41:17;55.15;;;35.55;;
18772;SDS011;9515;50.810;4.418;2022-07-21T08:43:43;47.50;;;33.80;;
18772;SDS011;9515;50.810;4.418;2022-07-21T08:46:09;52.47;;;36.78;;
18772;SDS011;9515;50.810;4.418;2022-07-21T08:48:36;48.20;;;35.70;;
18772;SDS011;9515;50.810;4.418;2022-07-21T08:51:01;52.92;;;35.10;;
18772;SDS011;9515;50.810;4.418;2022-07-21T08:53:27;50.00;;;33.95;;
18772;SDS011;9515;50.810;4.418;2022-07-21T08:55:53;49.85;;;34.38;;
18772;SDS011;9515;50.810;4.418;2022-07-21T08:58:20;49.03;;;34.88;;
18772;SDS011;9515;50.810;4.418;2022-07-21T09:00:46;46.08;;;33.50;;
18772;SDS011;9515;50.810;4.418;2022-07-21T09:03:26;52.53;;;33.70;;
18772;SDS011;9515;50.810;4.418;2022-07-21T09:06:03;49.72;;;33.78;;
18772;SDS011;9515;50.810;4.418;2022-07-21T09:11:07;44.17;;;30.45;;
18772;SDS011;9515;50.810;4.418;2022-07-21T09:13:36;43.05;;;31.23;;
18772;SDS011;9515;50.810;4.418;2022-07-21T09:16:02;49.38;;;31.38;;
18772;SDS011;9515;50.810;4.418;2022-07-21T09:18:27;41.00;;;30.83;;
18772;SDS011;9515;50.810;4.418;2022-07-21T09:20:53;32.42;;;24.08;;
18772;SDS011;9515;50.810;4.418;2022-07-21T09:23:20;33.92;;;23.92;;
18772;SDS011;9515;50.810;4.418;2022-07-21T09:25:49;23.95;;;16.10;;
18772;SDS011;9515;50.810;4.418;2022-07-21T09:28:26;19.35;;;16.05;;
18772;SDS011;9515;50.810;4.418;2022-07-21T09:30:58;12.50;;;10.95;;
18772;SDS011;9515;50.810;4.418;2022-07-21T09:36:09;10.93;;;9.50;;
18772;SDS011;9515;50.810;4.418;2022-07-21T09:38:37;10.38;;;9.48;;
18772;SDS011;9515;50.810;4.418;2022-07-21T09:41:09;11.32;;;10.10;;
18772;SDS011;9515;50.810;4.418;2022-07-21T09:46:49;10.70;;;9.70;;
18772;SDS011;9515;50.810;4.418;2022-07-21T09:48:57;11.07;;;9.38;;
18772;SDS011;9515;50.810;4.418;2022-07-21T09:51:30;10.25;;;9.25;;
18772;SDS011;9515;50.810;4.418;2022-07-21T09:54:05;11.07;;;8.70;;
18772;SDS011;9515;50.810;4.418;2022-07-21T09:56:33;12.32;;;10.40;;
18772;SDS011;9515;50.810;4.418;2022-07-21T09:59:01;12.80;;;10.27;;
18772;SDS011;9515;50.810;4.418;2022-07-21T10:01:29;11.95;;;10.70;;
18772;SDS011;9515;50.810;4.418;2022-07-21T10:03:55;11.25;;;10.10;;
18772;SDS011;9515;50.810;4.418;2022-07-21T10:06:26;14.38;;;10.82;;
18772;SDS011;9515;50.810;4.418;2022-07-21T10:08:57;10.43;;;9.32;;
18772;SDS011;9515;50.810;4.418;2022-07-21T10:11:24;11.32;;;10.20;;
18772;SDS011;9515;50.810;4.418;2022-07-21T10:13:51;12.38;;;10.77;;
18772;SDS011;9515;50.810;4.418;2022-07-21T10:16:17;12.23;;;9.75;;
18772;SDS011;9515;50.810;4.418;2022-07-21T10:21:39;12.20;;;9.57;;
18772;SDS011;9515;50.810;4.418;2022-07-21T10:24:14;11.73;;;9.38;;
18772;SDS011;9515;50.810;4.418;2022-07-21T10:27:02;11.27;;;8.38;;
18772;SDS011;9515;50.810;4.418;2022-07-21T10:32:18;11.00;;;8.63;;
18772;SDS011;9515;50.810;4.418;2022-07-21T10:34:46;13.32;;;9.02;;
18772;SDS011;9515;50.810;4.418;2022-07-21T10:37:59;9.57;;;7.68;;
18772;SDS011;9515;50.810;4.418;2022-07-21T10:40:06;9.95;;;8.32;;
18772;SDS011;9515;50.810;4.418;2022-07-21T10:42:32;9.80;;;8.57;;
18772;SDS011;9515;50.810;4.418;2022-07-21T10:44:57;11.18;;;9.95;;
18772;SDS011;9515;50.810;4.418;2022-07-21T10:47:23;9.95;;;8.32;;
18772;SDS011;9515;50.810;4.418;2022-07-21T10:49:59;10.95;;;8.80;;
18772;SDS011;9515;50.810;4.418;2022-07-21T10:55:22;14.70;;;8.57;;
18772;SDS011;9515;50.810;4.418;2022-07-21T10:58:09;9.50;;;8.32;;
18772;SDS011;9515;50.810;4.418;2022-07-21T11:00:42;10.68;;;9.27;;
18772;SDS011;9515;50.810;4.418;2022-07-21T11:03:29;14.15;;;10.23;;
18772;SDS011;9515;50.810;4.418;2022-07-21T11:11:08;14.27;;;10.57;;
18772;SDS011;9515;50.810;4.418;2022-07-21T11:24:42;18.25;;;9.55;;
18772;SDS011;9515;50.810;4.418;2022-07-21T11:27:11;14.30;;;8.52;;
18772;SDS011;9515;50.810;4.418;2022-07-21T11:29:40;11.52;;;7.72;;
18772;SDS011;9515;50.810;4.418;2022-07-21T11:32:08;13.43;;;9.25;;
18772;SDS011;9515;50.810;4.418;2022-07-21T11:37:03;15.75;;;8.77;;
18772;SDS011;9515;50.810;4.418;2022-07-21T11:39:28;12.10;;;8.32;;
18772;SDS011;9515;50.810;4.418;2022-07-21T11:41:54;10.73;;;7.70;;
18772;SDS011;9515;50.810;4.418;2022-07-21T11:44:26;16.13;;;8.77;;
18772;SDS011;9515;50.810;4.418;2022-07-21T11:49:22;14.95;;;8.27;;
18772;SDS011;9515;50.810;4.418;2022-07-21T11:52:10;13.65;;;8.32;;
18772;SDS011;9515;50.810;4.418;2022-07-21T11:54:51;13.02;;;8.70;;
18772;SDS011;9515;50.810;4.418;2022-07-21T11:57:19;13.38;;;8.65;;
18772;SDS011;9515;50.810;4.418;2022-07-21T11:59:46;12.77;;;8.80;;
18772;SDS011;9515;50.810;4.418;2022-07-21T12:02:23;15.00;;;9.57;;
18772;SDS011;9515;50.810;4.418;2022-07-21T12:07:35;13.25;;;10.30;;
18772;SDS011;9515;50.810;4.418;2022-07-21T12:10:05;15.57;;;9.18;;
18772;SDS011;9515;50.810;4.418;2022-07-21T12:12:37;13.27;;;9.98;;
18772;SDS011;9515;50.810;4.418;2022-07-21T12:15:12;15.95;;;8.25;;
18772;SDS011;9515;50.810;4.418;2022-07-21T12:17:50;17.83;;;11.75;;
18772;SDS011;9515;50.810;4.418;2022-07-21T12:20:29;13.30;;;7.82;;
18772;SDS011;9515;50.810;4.418;2022-07-21T12:22:55;16.20;;;8.25;;
18772;SDS011;9515;50.810;4.418;2022-07-21T12:25:30;15.07;;;8.95;;
18772;SDS011;9515;50.810;4.418;2022-07-21T12:27:59;16.38;;;7.78;;
18772;SDS011;9515;50.810;4.418;2022-07-21T12:30:31;11.30;;;7.47;;
18772;SDS011;9515;50.810;4.418;2022-07-21T12:33:06;12.73;;;8.35;;
18772;SDS011;9515;50.810;4.418;2022-07-21T12:35:36;14.25;;;8.18;;
18772;SDS011;9515;50.810;4.418;2022-07-21T12:38:12;9.95;;;7.25;;
18772;SDS011;9515;50.810;4.418;2022-07-21T12:40:42;13.45;;;7.38;;
18772;SDS011;9515;50.810;4.418;2022-07-21T12:43:14;15.90;;;8.25;;
18772;SDS011;9515;50.810;4.418;2022-07-21T12:48:13;15.45;;;8.55;;
18772;SDS011;9515;50.810;4.418;2022-07-21T12:50:41;16.23;;;7.43;;
18772;SDS011;9515;50.810;4.418;2022-07-21T12:53:20;15.65;;;7.20;;
18772;SDS011;9515;50.810;4.418;2022-07-21T12:55:46;11.50;;;6.68;;
18772;SDS011;9515;50.810;4.418;2022-07-21T12:58:12;13.68;;;6.60;;
18772;SDS011;9515;50.810;4.418;2022-07-21T13:00:37;14.15;;;6.88;;
18772;SDS011;9515;50.810;4.418;2022-07-21T13:03:03;12.50;;;6.53;;
18772;SDS011;9515;50.810;4.418;2022-07-21T13:05:29;12.98;;;6.03;;
18772;SDS011;9515;50.810;4.418;2022-07-21T13:07:54;12.70;;;6.65;;
18772;SDS011;9515;50.810;4.418;2022-07-21T13:10:20;15.25;;;6.22;;
18772;SDS011;9515;50.810;4.418;2022-07-21T13:12:46;11.82;;;6.32;;
18772;SDS011;9515;50.810;4.418;2022-07-21T13:15:12;10.60;;;6.40;;
18772;SDS011;9515;50.810;4.418;2022-07-21T13:17:39;13.68;;;8.15;;
18772;SDS011;9515;50.810;4.418;2022-07-21T13:20:04;12.07;;;6.30;;
18772;SDS011;9515;50.810;4.418;2022-07-21T13:22:31;12.18;;;5.90;;
18772;SDS011;9515;50.810;4.418;2022-07-21T13:24:56;13.52;;;6.05;;
18772;SDS011;9515;50.810;4.418;2022-07-21T13:27:22;11.43;;;5.75;;
18772;SDS011;9515;50.810;4.418;2022-07-21T13:29:48;11.15;;;5.60;;
18772;SDS011;9515;50.810;4.418;2022-07-21T13:32:14;14.52;;;5.78;;
18772;SDS011;9515;50.810;4.418;2022-07-21T13:34:39;14.63;;;6.35;;
18772;SDS011;9515;50.810;4.418;2022-07-21T13:37:05;12.95;;;6.35;;
18772;SDS011;9515;50.810;4.418;2022-07-21T13:39:36;19.83;;;6.60;;
18772;SDS011;9515;50.810;4.418;2022-07-21T13:42:05;12.38;;;5.80;;
18772;SDS011;9515;50.810;4.418;2022-07-21T13:44:33;13.02;;;6.13;;
18772;SDS011;9515;50.810;4.418;2022-07-21T13:46:59;16.77;;;7.03;;
18772;SDS011;9515;50.810;4.418;2022-07-21T13:49:25;12.32;;;6.03;;
18772;SDS011;9515;50.810;4.418;2022-07-21T13:51:50;13.95;;;5.93;;
18772;SDS011;9515;50.810;4.418;2022-07-21T13:54:16;11.35;;;5.55;;
18772;SDS011;9515;50.810;4.418;2022-07-21T13:56:42;17.13;;;6.57;;
18772;SDS011;9515;50.810;4.418;2022-07-21T13:59:08;13.07;;;5.88;;
18772;SDS011;9515;50.810;4.418;2022-07-21T14:01:34;15.23;;;6.00;;
18772;SDS011;9515;50.810;4.418;2022-07-21T14:04:00;12.18;;;6.00;;
18772;SDS011;9515;50.810;4.418;2022-07-21T14:06:25;13.18;;;5.57;;
18772;SDS011;9515;50.810;4.418;2022-07-21T14:08:51;14.75;;;6.00;;
18772;SDS011;9515;50.810;4.418;2022-07-21T14:11:17;12.32;;;5.97;;
18772;SDS011;9515;50.810;4.418;2022-07-21T14:13:43;15.95;;;8.13;;
18772;SDS011;9515;50.810;4.418;2022-07-21T14:16:09;15.82;;;6.32;;
18772;SDS011;9515;50.810;4.418;2022-07-21T14:18:35;13.52;;;5.95;;
18772;SDS011;9515;50.810;4.418;2022-07-21T14:21:01;11.10;;;5.38;;
18772;SDS011;9515;50.810;4.418;2022-07-21T14:23:27;17.58;;;6.22;;
18772;SDS011;9515;50.810;4.418;2022-07-21T14:25:53;14.15;;;5.50;;
18772;SDS011;9515;50.810;4.418;2022-07-21T14:28:19;17.00;;;5.90;;
18772;SDS011;9515;50.810;4.418;2022-07-21T14:30:45;14.00;;;5.65;;
18772;SDS011;9515;50.810;4.418;2022-07-21T14:33:11;12.25;;;5.97;;
18772;SDS011;9515;50.810;4.418;2022-07-21T14:35:37;11.68;;;5.95;;
18772;SDS011;9515;50.810;4.418;2022-07-21T14:38:03;18.42;;;6.18;;
18772;SDS011;9515;50.810;4.418;2022-07-21T14:40:28;15.07;;;5.13;;
18772;SDS011;9515;50.810;4.418;2022-07-21T14:42:54;14.02;;;6.25;;
18772;SDS011;9515;50.810;4.418;2022-07-21T14:45:20;13.00;;;5.00;;
18772;SDS011;9515;50.810;4.418;2022-07-21T14:47:47;13.07;;;5.60;;
18772;SDS011;9515;50.810;4.418;2022-07-21T14:50:14;19.58;;;6.18;;
18772;SDS011;9515;50.810;4.418;2022-07-21T14:52:41;11.77;;;5.10;;
18772;SDS011;9515;50.810;4.418;2022-07-21T14:55:07;12.98;;;5.25;;
18772;SDS011;9515;50.810;4.418;2022-07-21T14:57:34;11.52;;;5.22;;
18772;SDS011;9515;50.810;4.418;2022-07-21T15:00:01;14.27;;;4.97;;
18772;SDS011;9515;50.810;4.418;2022-07-21T15:02:29;12.95;;;5.43;;
18772;SDS011;9515;50.810;4.418;2022-07-21T15:04:54;13.45;;;5.65;;
18772;SDS011;9515;50.810;4.418;2022-07-21T15:07:20;10.35;;;5.28;;
18772;SDS011;9515;50.810;4.418;2022-07-21T15:09:46;14.60;;;5.28;;
18772;SDS011;9515;50.810;4.418;2022-07-21T15:12:11;32.38;;;21.08;;
18772;SDS011;9515;50.810;4.418;2022-07-21T15:14:38;13.70;;;4.95;;
18772;SDS011;9515;50.810;4.418;2022-07-21T15:17:03;11.93;;;4.88;;
18772;SDS011;9515;50.810;4.418;2022-07-21T15:19:29;8.25;;;4.57;;
18772;SDS011;9515;50.810;4.418;2022-07-21T15:21:55;11.40;;;5.13;;